createdAt,value
2022-10-18T00:00:07.529Z,4.88
2022-10-18T00:02:34.608Z,5.63
2022-10-18T00:05:01.654Z,5.10
2022-10-18T00:07:28.521Z,5.18
2022-10-18T00:09:55.525Z,4.77
2022-10-18T00:12:22.512Z,4.70
2022-10-18T00:14:51.086Z,4.90
2022-10-18T00:17:18.417Z,5.38
2022-10-18T00:19:46.662Z,5.32
2022-10-18T00:22:13.612Z,4.80
2022-10-18T00:24:40.423Z,4.85
2022-10-18T00:27:07.618Z,4.70
2022-10-18T00:29:34.459Z,4.78
2022-10-18T00:32:01.250Z,5.18
2022-10-18T00:34:28.137Z,4.53
2022-10-18T00:36:55.321Z,4.45
2022-10-18T00:39:23.043Z,4.78
2022-10-18T00:41:50.424Z,4.22
2022-10-18T00:44:17.172Z,4.28
2022-10-18T00:46:49.486Z,4.80
2022-10-18T00:49:20.876Z,4.50
2022-10-18T00:52:05.017Z,4.50
2022-10-18T00:54:34.146Z,3.90
2022-10-18T00:57:01.852Z,3.83
2022-10-18T00:59:29.624Z,4.30
2022-10-18T01:01:56.815Z,4.90
2022-10-18T01:04:24.217Z,4.38
2022-10-18T01:09:50.148Z,3.97
2022-10-18T01:12:58.750Z,3.73
2022-10-18T01:15:37.436Z,3.88
2022-10-18T01:18:22.579Z,4.05
2022-10-18T01:21:10.952Z,3.50
2022-10-18T01:24:12.906Z,5.28
2022-10-18T01:27:04.360Z,8.13
2022-10-18T01:30:07.904Z,6.97
2022-10-18T01:32:44.429Z,5.03
2022-10-18T01:35:26.246Z,4.75
2022-10-18T01:37:59.369Z,5.20
2022-10-18T01:40:27.050Z,5.67
2022-10-18T01:42:54.151Z,5.45
2022-10-18T01:45:22.722Z,6.05
2022-10-18T01:47:51.045Z,6.78
2022-10-18T01:50:30.755Z,6.25
2022-10-18T01:52:57.900Z,6.20
2022-10-18T01:55:48.784Z,5.50
2022-10-18T01:58:54.041Z,5.32
2022-10-18T02:01:42.489Z,5.72
2022-10-18T02:04:37.697Z,4.90
2022-10-18T02:07:15.179Z,5.20
2022-10-18T02:10:06.811Z,4.97
2022-10-18T02:12:35.042Z,5.35
2022-10-18T02:15:04.387Z,5.68
2022-10-18T02:17:32.514Z,5.60
2022-10-18T02:20:02.684Z,4.87
2022-10-18T02:22:33.850Z,5.50
2022-10-18T02:25:05.578Z,5.13
2022-10-18T02:27:32.668Z,5.53
2022-10-18T02:29:59.654Z,5.90
2022-10-18T02:32:35.079Z,5.97
2022-10-18T02:35:34.286Z,5.90
2022-10-18T02:38:02.993Z,5.57
2022-10-18T02:40:30.316Z,4.88
2022-10-18T02:42:58.782Z,5.47
2022-10-18T02:45:26.728Z,5.17
2022-10-18T02:47:53.807Z,4.70
2022-10-18T02:50:20.585Z,5.45
2022-10-18T02:52:47.396Z,4.90
2022-10-18T02:55:14.171Z,5.63
2022-10-18T02:57:40.957Z,4.80
2022-10-18T03:00:08.536Z,5.28
2022-10-18T03:02:35.501Z,5.03
2022-10-18T03:05:02.400Z,4.93
2022-10-18T03:07:29.476Z,4.70
2022-10-18T03:09:56.470Z,5.03
2022-10-18T03:12:23.260Z,4.70
2022-10-18T03:14:50.036Z,4.72
2022-10-18T03:17:16.836Z,4.70
2022-10-18T03:19:43.621Z,4.80
2022-10-18T03:22:10.484Z,4.13
2022-10-18T03:24:37.266Z,4.72
2022-10-18T03:27:04.205Z,4.32
2022-10-18T03:29:31.002Z,4.78
2022-10-18T03:31:57.860Z,4.07
2022-10-18T03:34:24.709Z,4.10
2022-10-18T03:36:51.469Z,4.68
2022-10-18T03:39:18.291Z,4.38
2022-10-18T03:41:45.013Z,3.95
2022-10-18T03:44:11.836Z,3.88
2022-10-18T03:46:38.615Z,3.43
2022-10-18T03:49:05.422Z,3.50
2022-10-18T03:51:32.215Z,3.25
2022-10-18T03:53:59.020Z,3.55
2022-10-18T03:56:25.850Z,3.13
2022-10-18T03:58:52.652Z,4.37
2022-10-18T04:01:19.594Z,4.00
2022-10-18T04:03:46.499Z,2.90
2022-10-18T04:06:13.421Z,3.40
2022-10-18T04:08:40.275Z,3.55
2022-10-18T04:11:11.312Z,3.20
2022-10-18T04:13:38.783Z,3.70
2022-10-18T04:16:05.676Z,4.30
2022-10-18T04:18:32.467Z,2.90
2022-10-18T04:20:59.315Z,4.38
2022-10-18T04:23:26.160Z,3.20
2022-10-18T04:25:52.951Z,3.83
2022-10-18T04:28:19.865Z,2.92
2022-10-18T04:30:53.383Z,3.50
2022-10-18T04:33:20.683Z,2.92
2022-10-18T04:35:48.013Z,3.00
2022-10-18T04:38:14.990Z,2.70
2022-10-18T04:40:41.765Z,2.70
2022-10-18T04:43:08.605Z,2.22
2022-10-18T04:45:35.726Z,2.03
2022-10-18T04:48:03.388Z,2.30
2022-10-18T04:50:30.261Z,2.30
2022-10-18T04:52:57.032Z,2.97
2022-10-18T04:55:24.001Z,3.25
2022-10-18T04:57:50.759Z,2.42
2022-10-18T05:00:17.730Z,3.07
2022-10-18T05:02:44.530Z,2.47
2022-10-18T05:05:13.928Z,2.45
2022-10-18T05:07:41.272Z,2.80
2022-10-18T05:10:08.613Z,2.40
2022-10-18T05:12:35.523Z,2.40
2022-10-18T05:15:02.414Z,2.40
2022-10-18T05:17:29.248Z,2.17
2022-10-18T05:19:56.091Z,2.30
2022-10-18T05:22:22.894Z,2.40
2022-10-18T05:24:49.784Z,1.93
2022-10-18T05:27:16.573Z,1.98
2022-10-18T05:29:43.374Z,2.00
2022-10-18T05:32:10.210Z,2.13
2022-10-18T05:34:37.018Z,2.45
2022-10-18T05:37:03.860Z,2.03
2022-10-18T05:39:30.768Z,2.00
2022-10-18T05:41:58.310Z,2.25
2022-10-18T05:44:25.070Z,2.47
2022-10-18T05:46:51.938Z,2.35
2022-10-18T05:49:18.924Z,2.20
2022-10-18T05:51:45.618Z,2.22
2022-10-18T05:54:13.063Z,2.10
2022-10-18T05:56:40.599Z,2.40
2022-10-18T05:59:10.392Z,1.40
2022-10-18T06:01:38.569Z,1.80
2022-10-18T06:04:06.048Z,1.80
2022-10-18T06:06:33.781Z,2.33
2022-10-18T06:09:00.644Z,2.50
2022-10-18T06:11:27.458Z,2.40
2022-10-18T06:13:54.314Z,2.53
2022-10-18T06:16:23.049Z,2.70
2022-10-18T06:18:52.503Z,3.17
2022-10-18T06:21:19.872Z,3.35
2022-10-18T06:23:55.085Z,3.25
2022-10-18T06:26:22.399Z,3.00
2022-10-18T06:28:50.213Z,2.60
2022-10-18T06:31:17.415Z,3.05
2022-10-18T06:33:45.999Z,3.60
2022-10-18T06:36:18.716Z,3.35
2022-10-18T06:38:45.797Z,2.87
2022-10-18T06:41:12.956Z,2.80
2022-10-18T06:43:40.367Z,2.63
2022-10-18T06:46:08.786Z,3.40
2022-10-18T06:48:36.755Z,3.00
2022-10-18T06:51:06.768Z,2.83
2022-10-18T06:53:43.692Z,2.60
2022-10-18T06:56:16.316Z,2.85
2022-10-18T06:58:43.325Z,3.45
2022-10-18T07:01:12.866Z,3.40
2022-10-18T07:03:39.947Z,3.10
2022-10-18T07:06:09.041Z,3.05
2022-10-18T07:08:36.083Z,3.25
2022-10-18T07:11:02.885Z,3.17
2022-10-18T07:13:32.765Z,3.28
2022-10-18T07:16:12.825Z,3.20
2022-10-18T07:18:44.773Z,2.83
2022-10-18T07:21:15.585Z,3.80
2022-10-18T07:23:44.296Z,3.95
2022-10-18T07:26:33.301Z,3.58
2022-10-18T07:29:11.933Z,4.20
2022-10-18T07:31:39.381Z,3.97
2022-10-18T07:34:07.624Z,4.00
2022-10-18T07:36:34.925Z,3.42
2022-10-18T07:39:01.819Z,4.00
2022-10-18T07:41:29.309Z,3.60
2022-10-18T07:43:56.109Z,3.88
2022-10-18T07:46:23.275Z,3.35
2022-10-18T07:48:51.441Z,3.20
2022-10-18T07:51:22.272Z,3.42
2022-10-18T07:53:49.171Z,2.97
2022-10-18T07:56:21.026Z,2.70
2022-10-18T07:58:53.721Z,3.67
2022-10-18T08:01:25.306Z,3.13
2022-10-18T08:03:53.092Z,3.00
2022-10-18T08:06:21.774Z,2.87
2022-10-18T08:08:48.848Z,2.75
2022-10-18T08:11:19.010Z,2.83
2022-10-18T08:13:46.258Z,3.08
2022-10-18T08:16:16.039Z,4.60
2022-10-18T08:18:43.340Z,2.80
2022-10-18T08:21:12.350Z,3.00
2022-10-18T08:23:39.868Z,3.47
2022-10-18T08:26:09.808Z,3.20
2022-10-18T08:28:37.060Z,3.15
2022-10-18T08:31:09.192Z,3.80
2022-10-18T08:33:36.415Z,3.25
2022-10-18T08:36:06.116Z,3.67
2022-10-18T08:38:35.283Z,3.05
2022-10-18T08:41:43.282Z,3.10
2022-10-18T08:44:23.536Z,3.57
2022-10-18T08:46:59.162Z,3.95
2022-10-18T08:49:32.472Z,4.18
2022-10-18T08:51:59.531Z,3.47
2022-10-18T08:54:56.812Z,3.45
2022-10-18T08:57:23.715Z,3.50
2022-10-18T08:59:50.827Z,3.83
2022-10-18T09:02:49.916Z,3.83
2022-10-18T09:05:16.840Z,4.30
2022-10-18T09:08:09.833Z,4.15
2022-10-18T09:10:45.998Z,4.50
2022-10-18T09:13:18.928Z,4.50
2022-10-18T09:16:17.885Z,4.63
2022-10-18T09:18:57.710Z,4.45
2022-10-18T09:21:41.092Z,4.50
2022-10-18T09:24:13.321Z,4.47
2022-10-18T09:26:46.457Z,4.13
2022-10-18T09:29:22.193Z,4.40
2022-10-18T09:32:14.072Z,4.45
2022-10-18T09:34:54.080Z,4.32
2022-10-18T09:37:24.287Z,4.80
2022-10-18T09:39:55.560Z,4.20
2022-10-18T09:42:35.177Z,4.10
2022-10-18T09:45:21.678Z,3.80
2022-10-18T09:48:11.801Z,3.83
2022-10-18T09:50:44.900Z,3.37
2022-10-18T09:53:26.532Z,3.58
2022-10-18T09:56:15.444Z,2.65
2022-10-18T09:58:45.796Z,4.03
2022-10-18T10:01:23.984Z,2.88
2022-10-18T10:03:51.871Z,2.63
2022-10-18T10:06:31.749Z,2.30
2022-10-18T10:09:01.946Z,2.30
2022-10-18T10:11:50.684Z,2.38
2022-10-18T10:14:26.030Z,1.95
2022-10-18T10:16:58.745Z,1.87
2022-10-18T10:19:30.658Z,0.60
2022-10-18T10:22:05.721Z,0.70
2022-10-18T10:24:53.711Z,0.50
2022-10-18T10:27:44.352Z,0.40
2022-10-18T10:30:27.311Z,0.30
2022-10-18T10:32:56.009Z,0.50
2022-10-18T10:35:53.519Z,0.65
2022-10-18T10:38:26.728Z,0.30
2022-10-18T10:40:54.252Z,0.50
2022-10-18T10:43:39.688Z,0.90
2022-10-18T10:46:10.587Z,0.30
2022-10-18T10:48:46.770Z,0.80
2022-10-18T10:51:16.327Z,1.77
2022-10-18T10:53:50.996Z,0.40
2022-10-18T10:56:29.977Z,0.50
2022-10-18T10:59:02.185Z,0.40
2022-10-18T11:01:32.379Z,1.05
2022-10-18T11:04:02.498Z,0.40
2022-10-18T11:06:49.273Z,0.60
2022-10-18T11:09:32.004Z,0.30
2022-10-18T11:12:11.319Z,0.50
2022-10-18T11:14:51.099Z,0.30
2022-10-18T11:17:40.112Z,0.30
2022-10-18T11:20:38.683Z,0.30
2022-10-18T11:23:13.292Z,0.27
2022-10-18T11:26:03.272Z,0.30
2022-10-18T11:28:57.410Z,0.38
2022-10-18T11:31:31.764Z,0.30
2022-10-18T11:34:17.625Z,0.30
2022-10-18T11:37:29.978Z,0.60
2022-10-18T11:40:15.813Z,0.38
2022-10-18T11:43:30.079Z,0.50
2022-10-18T11:46:28.963Z,0.30
2022-10-18T11:49:18.736Z,0.28
2022-10-18T11:52:11.626Z,0.43
2022-10-18T11:54:56.549Z,0.30
2022-10-18T11:57:59.840Z,0.75
2022-10-18T12:00:57.336Z,0.40
2022-10-18T12:03:27.177Z,0.40
2022-10-18T12:05:58.534Z,0.20
2022-10-18T12:08:37.035Z,0.30
2022-10-18T12:11:16.774Z,0.25
2022-10-18T12:13:57.158Z,0.35
2022-10-18T12:16:50.558Z,0.30
2022-10-18T12:19:26.685Z,0.30
2022-10-18T12:21:58.294Z,0.47
2022-10-18T12:24:30.520Z,0.40
2022-10-18T12:27:00.815Z,0.28
2022-10-18T12:29:30.902Z,0.30
2022-10-18T12:32:02.806Z,0.27
2022-10-18T12:34:43.268Z,0.77
2022-10-18T12:37:25.045Z,0.28
2022-10-18T12:40:10.624Z,0.30
2022-10-18T12:42:46.361Z,0.20
2022-10-18T12:45:13.882Z,0.23
2022-10-18T12:47:41.295Z,0.28
2022-10-18T12:50:28.617Z,0.32
2022-10-18T12:53:08.477Z,0.20
2022-10-18T12:58:30.506Z,0.30
2022-10-18T13:01:02.607Z,0.20
2022-10-18T13:03:42.294Z,0.20
2022-10-18T13:06:09.286Z,0.20
2022-10-18T13:08:42.237Z,0.30
2022-10-18T13:11:12.011Z,0.20
2022-10-18T13:14:08.063Z,0.30
2022-10-18T13:16:59.093Z,0.20
2022-10-18T13:20:02.946Z,0.20
2022-10-18T13:22:49.087Z,0.30
2022-10-18T13:25:27.849Z,0.20
2022-10-18T13:27:54.878Z,0.20
2022-10-18T13:30:21.830Z,0.20
2022-10-18T13:32:54.647Z,0.20
2022-10-18T13:35:40.021Z,0.10
2022-10-18T13:38:24.829Z,0.30
2022-10-18T13:41:13.338Z,0.30
2022-10-18T13:43:57.195Z,0.30
2022-10-18T13:46:33.121Z,0.30
2022-10-18T13:49:20.710Z,0.40
2022-10-18T13:52:05.568Z,0.40
2022-10-18T13:54:50.557Z,0.30
2022-10-18T13:57:39.207Z,0.30
2022-10-18T14:00:30.300Z,0.30
2022-10-18T14:03:44.157Z,0.30
2022-10-18T14:06:22.923Z,0.23
2022-10-18T14:09:25.530Z,0.20
2022-10-18T14:12:26.177Z,0.30
2022-10-18T14:15:14.658Z,0.20
2022-10-18T14:18:16.506Z,0.70
2022-10-18T14:21:01.386Z,0.20
2022-10-18T14:23:40.979Z,0.30
2022-10-18T14:26:19.659Z,0.22
2022-10-18T14:29:01.929Z,0.43
2022-10-18T14:31:30.069Z,0.40
2022-10-18T14:33:59.021Z,0.63
2022-10-18T14:36:29.565Z,0.47
2022-10-18T14:38:59.256Z,0.60
2022-10-18T14:41:28.783Z,0.50
2022-10-18T14:44:14.363Z,0.40
2022-10-18T14:46:47.051Z,0.60
2022-10-18T14:49:15.288Z,0.40
2022-10-18T14:51:44.584Z,0.30
2022-10-18T14:54:30.653Z,0.32
2022-10-18T14:56:59.894Z,0.38
2022-10-18T14:59:33.059Z,0.43
2022-10-18T15:02:05.254Z,0.40
2022-10-18T15:04:35.486Z,0.40
2022-10-18T15:07:05.592Z,0.63
2022-10-18T15:09:35.021Z,0.50
2022-10-18T15:12:07.508Z,0.50
2022-10-18T15:14:35.783Z,0.47
2022-10-18T15:17:14.376Z,0.30
2022-10-18T15:20:00.519Z,0.30
2022-10-18T15:22:32.883Z,0.47
2022-10-18T15:25:06.078Z,0.73
2022-10-18T15:27:37.256Z,0.40
2022-10-18T15:30:14.197Z,0.40
2022-10-18T15:32:49.392Z,1.20
2022-10-18T15:35:24.984Z,0.77
2022-10-18T15:37:53.126Z,0.40
2022-10-18T15:40:33.599Z,0.60
2022-10-18T15:43:04.104Z,0.47
2022-10-18T15:45:35.425Z,0.47
2022-10-18T15:48:17.362Z,0.88
2022-10-18T15:51:04.523Z,0.50
2022-10-18T15:53:33.093Z,0.43
2022-10-18T15:56:01.121Z,0.40
2022-10-18T15:58:40.634Z,0.40
2022-10-18T16:01:18.154Z,0.63
2022-10-18T16:03:46.788Z,0.37
2022-10-18T16:06:18.294Z,0.82
2022-10-18T16:08:51.134Z,0.98
2022-10-18T16:11:24.165Z,0.82
2022-10-18T16:13:55.140Z,1.13
2022-10-18T16:16:27.535Z,0.63
2022-10-18T16:18:55.271Z,0.50
2022-10-18T16:21:27.840Z,0.30
2022-10-18T16:23:54.821Z,1.30
2022-10-18T16:26:23.400Z,0.50
2022-10-18T16:28:52.246Z,0.40
2022-10-18T16:31:22.133Z,0.60
2022-10-18T16:33:51.343Z,0.70
2022-10-18T16:36:21.457Z,0.75
2022-10-18T16:38:49.134Z,0.57
2022-10-18T16:41:16.939Z,0.53
2022-10-18T16:43:45.963Z,0.77
2022-10-18T16:46:34.577Z,0.65
2022-10-18T16:49:02.622Z,0.40
2022-10-18T16:51:29.871Z,0.75
2022-10-18T16:53:57.502Z,0.53
2022-10-18T16:56:30.855Z,0.60
2022-10-18T16:58:58.846Z,0.60
2022-10-18T17:01:26.726Z,0.77
2022-10-18T17:03:53.961Z,0.85
2022-10-18T17:06:27.269Z,1.07
2022-10-18T17:08:55.654Z,1.30
2022-10-18T17:11:25.593Z,1.30
2022-10-18T17:13:52.529Z,1.70
2022-10-18T17:16:32.292Z,1.60
2022-10-18T17:19:01.717Z,1.83
2022-10-18T17:21:29.964Z,1.98
2022-10-18T17:24:00.715Z,2.35
2022-10-18T17:26:29.667Z,1.70
2022-10-18T17:29:03.442Z,1.90
2022-10-18T17:31:32.207Z,2.70
2022-10-18T17:34:02.060Z,2.30
2022-10-18T17:36:31.051Z,2.10
2022-10-18T17:38:58.498Z,1.85
2022-10-18T17:41:25.653Z,1.63
2022-10-18T17:43:52.715Z,1.87
2022-10-18T17:46:19.810Z,1.65
2022-10-18T17:48:47.150Z,2.25
2022-10-18T17:51:16.957Z,1.85
2022-10-18T17:53:44.401Z,4.80
2022-10-18T17:56:12.218Z,5.40
2022-10-18T17:58:39.744Z,4.57
2022-10-18T18:01:15.667Z,4.05
2022-10-18T18:03:42.930Z,4.80
2022-10-18T18:06:21.552Z,4.30
2022-10-18T18:08:49.238Z,4.60
2022-10-18T18:11:17.401Z,3.95
2022-10-18T18:13:44.452Z,3.92
2022-10-18T18:16:19.241Z,3.42
2022-10-18T18:18:54.360Z,3.38
2022-10-18T18:21:21.844Z,3.50
2022-10-18T18:23:49.718Z,3.38
2022-10-18T18:26:18.629Z,3.70
2022-10-18T18:28:45.983Z,3.40
2022-10-18T18:31:19.109Z,5.05
2022-10-18T18:33:46.573Z,4.43
2022-10-18T18:36:14.060Z,5.55
2022-10-18T18:38:44.655Z,6.47
2022-10-18T18:41:16.870Z,9.10
2022-10-18T18:43:47.075Z,10.27
2022-10-18T18:46:14.120Z,8.50
2022-10-18T18:48:41.493Z,9.95
2022-10-18T18:51:14.307Z,10.13
2022-10-18T18:53:43.293Z,8.27
2022-10-18T18:56:15.081Z,5.78
2022-10-18T18:58:44.376Z,4.83
2022-10-18T19:01:15.411Z,4.05
2022-10-18T19:03:43.329Z,3.65
2022-10-18T19:06:14.893Z,2.97
2022-10-18T19:08:44.945Z,2.75
2022-10-18T19:11:22.765Z,2.77
2022-10-18T19:13:50.558Z,2.50
2022-10-18T19:16:35.534Z,2.70
2022-10-18T19:19:26.502Z,2.33
2022-10-18T19:21:58.776Z,2.22
2022-10-18T19:24:28.108Z,2.50
2022-10-18T19:27:13.104Z,2.50
2022-10-18T19:29:41.017Z,2.58
2022-10-18T19:32:12.370Z,2.28
2022-10-18T19:34:39.711Z,2.20
2022-10-18T19:37:06.796Z,1.80
2022-10-18T19:39:35.501Z,2.00
2022-10-18T19:42:05.952Z,2.13
2022-10-18T19:44:36.172Z,2.00
2022-10-18T19:47:06.475Z,1.80
2022-10-18T19:49:33.413Z,1.80
2022-10-18T19:52:00.363Z,2.03
2022-10-18T19:54:27.395Z,2.28
2022-10-18T19:56:54.498Z,1.95
2022-10-18T19:59:22.769Z,2.10
2022-10-18T20:01:51.939Z,3.00
2022-10-18T20:04:19.014Z,2.35
2022-10-18T20:06:46.027Z,2.55
2022-10-18T20:09:17.657Z,3.47
2022-10-18T20:11:47.757Z,3.30
2022-10-18T20:14:14.676Z,3.13
2022-10-18T20:16:41.627Z,4.30
2022-10-18T20:19:08.734Z,3.30
2022-10-18T20:21:36.511Z,3.40
2022-10-18T20:24:06.740Z,3.65
2022-10-18T20:26:34.718Z,3.63
2022-10-18T20:29:01.750Z,3.55
2022-10-18T20:31:39.164Z,2.60
2022-10-18T20:34:11.848Z,2.45
2022-10-18T20:36:39.433Z,2.00
2022-10-18T20:39:07.179Z,2.20
2022-10-18T20:41:39.913Z,2.28
2022-10-18T20:44:11.890Z,2.10
2022-10-18T20:46:40.548Z,2.80
2022-10-18T20:49:08.540Z,2.90
2022-10-18T20:51:35.957Z,3.33
2022-10-18T20:54:06.730Z,3.40
2022-10-18T20:56:35.562Z,3.38
2022-10-18T20:59:03.262Z,4.10
2022-10-18T21:01:32.435Z,3.35
2022-10-18T21:04:02.349Z,3.60
2022-10-18T21:06:31.884Z,3.97
2022-10-18T21:09:05.142Z,4.03
2022-10-18T21:11:37.430Z,3.50
2022-10-18T21:14:05.765Z,3.88
2022-10-18T21:16:35.071Z,3.73
2022-10-18T21:19:07.453Z,3.35
2022-10-18T21:21:34.876Z,3.60
2022-10-18T21:24:05.377Z,2.70
2022-10-18T21:26:35.154Z,2.60
2022-10-18T21:29:02.893Z,2.47
2022-10-18T21:31:32.445Z,2.25
2022-10-18T21:34:00.858Z,2.53
2022-10-18T21:36:31.491Z,2.70
2022-10-18T21:38:58.782Z,3.40
2022-10-18T21:41:26.204Z,3.37
2022-10-18T21:43:54.609Z,3.10
2022-10-18T21:46:24.408Z,3.58
2022-10-18T21:48:53.074Z,4.00
2022-10-18T21:51:21.474Z,4.85
2022-10-18T21:53:50.960Z,4.43
2022-10-18T21:56:23.481Z,3.90
2022-10-18T21:58:50.736Z,5.22
2022-10-18T22:01:24.155Z,5.05
2022-10-18T22:03:53.505Z,5.10
2022-10-18T22:06:21.120Z,4.60
2022-10-18T22:08:57.130Z,5.22
2022-10-18T22:11:27.175Z,5.18
2022-10-18T22:13:54.751Z,5.30
2022-10-18T22:16:22.229Z,5.32
2022-10-18T22:18:50.487Z,5.00
2022-10-18T22:21:19.493Z,5.25
2022-10-18T22:23:48.870Z,5.10
2022-10-18T22:26:20.015Z,5.22
2022-10-18T22:28:47.412Z,4.95
2022-10-18T22:31:26.379Z,4.90
2022-10-18T22:33:55.160Z,4.55
2022-10-18T22:36:22.493Z,6.32
2022-10-18T22:38:49.481Z,6.50
2022-10-18T22:41:16.688Z,6.40
2022-10-18T22:43:45.981Z,5.63
2022-10-18T22:46:14.265Z,5.50
2022-10-18T22:48:41.730Z,5.53
2022-10-18T22:51:08.853Z,4.93
2022-10-18T22:53:37.165Z,5.13
2022-10-18T22:56:05.392Z,6.10
2022-10-18T22:58:32.580Z,6.25
2022-10-18T23:01:04.809Z,5.82
2022-10-18T23:03:31.574Z,5.25
2022-10-18T23:05:58.842Z,6.20
2022-10-18T23:08:26.316Z,5.33
2022-10-18T23:10:58.562Z,5.03
2022-10-18T23:13:26.881Z,6.22
2022-10-18T23:15:53.954Z,5.10
2022-10-18T23:18:20.933Z,5.93
2022-10-18T23:20:47.769Z,4.90
2022-10-18T23:23:14.528Z,5.65
2022-10-18T23:25:41.326Z,4.68
2022-10-18T23:28:08.117Z,5.05
2022-10-18T23:30:38.132Z,5.03
2022-10-18T23:33:05.072Z,5.33
2022-10-18T23:35:31.911Z,4.82
2022-10-18T23:37:58.715Z,5.47
2022-10-18T23:40:25.585Z,5.03
2022-10-18T23:42:52.453Z,5.15
2022-10-18T23:45:19.300Z,5.03
2022-10-18T23:47:46.171Z,4.93
2022-10-18T23:50:12.899Z,4.25
2022-10-18T23:52:39.737Z,4.32
2022-10-18T23:55:07.279Z,4.22
2022-10-18T23:57:34.447Z,4.10
